TimeEDT,TemperatureF,Dew PointF,Humidity,Sea Level PressureIn,VisibilityMPH,Wind Direction,Wind SpeedMPH,Gust SpeedMPH,PrecipitationIn,Events,Conditions,WindDirDegrees,DateUTC
12:51 AM,68.0,64.9,90,30.19,7.0,East,4.6,-,N/A,,Clear,80,2013-06-21 04:51:00
1:51 AM,68.0,64.9,90,30.19,7.0,East,4.6,-,N/A,,Clear,90,2013-06-21 05:51:00
2:51 AM,66.9,64.0,90,30.17,7.0,East,4.6,-,N/A,,Clear,80,2013-06-21 06:51:00
3:51 AM,66.0,64.0,93,30.18,6.0,East,4.6,-,N/A,,Clear,80,2013-06-21 07:51:00
4:51 AM,66.0,64.0,93,30.18,6.0,East,4.6,-,N/A,,Clear,80,2013-06-21 08:51:00
5:51 AM,64.9,63.0,93,30.19,6.0,ENE,3.5,-,N/A,,Clear,60,2013-06-21 09:51:00
6:51 AM,66.0,63.0,90,30.21,5.0,NE,3.5,-,N/A,,Clear,40,2013-06-21 10:51:00
7:51 AM,69.1,64.0,84,30.22,6.0,ENE,8.1,-,N/A,,Haze,60,2013-06-21 11:51:00
8:51 AM,72.0,64.9,78,30.24,7.0,East,8.1,-,N/A,,Clear,80,2013-06-21 12:51:00
9:51 AM,75.9,66.0,71,30.24,8.0,East,5.8,-,N/A,,Clear,90,2013-06-21 13:51:00
10:51 AM,79.0,64.9,62,30.24,8.0,East,5.8,-,N/A,,Clear,80,2013-06-21 14:51:00
11:51 AM,79.0,66.0,64,30.25,8.0,Variable,5.8,-,N/A,,Mostly Cloudy,0,2013-06-21 15:51:00
12:51 PM,81.0,64.9,58,30.24,8.0,ENE,9.2,-,N/A,,Mostly Cloudy,60,2013-06-21 16:51:00
1:51 PM,82.0,64.9,56,30.23,9.0,ENE,10.4,-,N/A,,Scattered Clouds,70,2013-06-21 17:51:00
2:51 PM,84.0,64.9,53,30.21,9.0,NE,5.8,-,N/A,,Partly Cloudy,50,2013-06-21 18:51:00
3:51 PM,82.9,64.0,53,30.20,9.0,ENE,6.9,-,N/A,,Clear,70,2013-06-21 19:51:00
4:51 PM,84.0,64.0,51,30.18,9.0,East,6.9,-,N/A,,Partly Cloudy,80,2013-06-21 20:51:00
5:51 PM,82.0,63.0,52,30.17,9.0,NE,3.5,-,N/A,,Clear,50,2013-06-21 21:51:00
6:51 PM,82.0,64.0,54,30.17,9.0,East,6.9,-,N/A,,Scattered Clouds,80,2013-06-21 22:51:00
7:51 PM,80.1,63.0,56,30.16,9.0,East,6.9,-,N/A,,Clear,80,2013-06-21 23:51:00
8:51 PM,73.0,64.0,73,30.16,9.0,Calm,Calm,-,N/A,,Clear,0,2013-06-22 00:51:00
9:51 PM,71.1,64.9,81,30.17,9.0,Calm,Calm,-,N/A,,Clear,0,2013-06-22 01:51:00
10:51 PM,68.0,64.9,90,30.19,9.0,Calm,Calm,-,N/A,,Clear,0,2013-06-22 02:51:00
11:51 PM,68.0,63.0,84,30.19,9.0,ENE,3.5,-,N/A,,Clear,60,2013-06-22 03:51:00